RORK(METAR)
10/16 18:00
METAR RORK 160900Z AUTO 08021KT 9999 BKN018 BKN027 27/24 Q1014 RMK
A2994=
戻る
トップページへ戻る
IMOC Co,.Ltd.